sensor_id;sensor_type;location;lat;lon;timestamp;pressure;altitude;pressure_sealevel;temperature;humidity
60307;BME280;46155;52.364;6.580;2023-04-04T03:02:14;102751.56;;;0.76;93.45
60307;BME280;46155;52.364;6.580;2023-04-04T03:04:39;102735.13;;;0.75;93.04
60307;BME280;46155;52.364;6.580;2023-04-04T03:07:05;102735.91;;;0.81;92.07
60307;BME280;46155;52.364;6.580;2023-04-04T03:09:30;102731.94;;;0.91;91.38
60307;BME280;46155;52.364;6.580;2023-04-04T03:11:55;102737.91;;;0.97;90.69
60307;BME280;46155;52.364;6.580;2023-04-04T03:14:21;102736.13;;;1.03;89.89
60307;BME280;46155;52.364;6.580;2023-04-04T03:16:46;102734.06;;;1.00;89.82
60307;BME280;46155;52.364;6.580;2023-04-04T03:19:14;102724.53;;;1.07;89.88
60307;BME280;46155;52.364;6.580;2023-04-04T03:21:40;102725.06;;;1.04;89.23
60307;BME280;46155;52.364;6.580;2023-04-04T03:24:05;102718.88;;;0.96;90.45
60307;BME280;46155;52.364;6.580;2023-04-04T03:26:30;102709.41;;;0.90;90.69
60307;BME280;46155;52.364;6.580;2023-04-04T03:28:56;102717.38;;;0.91;89.53
60307;BME280;46155;52.364;6.580;2023-04-04T03:31:21;102712.13;;;0.84;89.92
60307;BME280;46155;52.364;6.580;2023-04-04T03:33:46;102717.63;;;0.80;90.20
60307;BME280;46155;52.364;6.580;2023-04-04T03:36:12;102719.81;;;0.77;91.32
60307;BME280;46155;52.364;6.580;2023-04-04T03:38:38;102710.31;;;0.70;91.46
60307;BME280;46155;52.364;6.580;2023-04-04T03:41:04;102719.44;;;0.61;91.74
60307;BME280;46155;52.364;6.580;2023-04-04T03:43:31;102719.09;;;0.45;92.03
60307;BME280;46155;52.364;6.580;2023-04-04T03:46:03;102733.03;;;0.40;93.48
60307;BME280;46155;52.364;6.580;2023-04-04T03:48:29;102734.31;;;0.36;93.49
60307;BME280;46155;52.364;6.580;2023-04-04T03:50:56;102729.97;;;0.29;93.51
60307;BME280;46155;52.364;6.580;2023-04-04T03:53:22;102727.81;;;0.20;94.57
60307;BME280;46155;52.364;6.580;2023-04-04T03:55:47;102733.84;;;0.13;94.46
60307;BME280;46155;52.364;6.580;2023-04-04T03:58:13;102730.94;;;0.04;95.43
60307;BME280;46155;52.364;6.580;2023-04-04T04:00:38;102723.97;;;-0.10;95.38
60307;BME280;46155;52.364;6.580;2023-04-04T04:03:04;102726.34;;;0.02;95.74
60307;BME280;46155;52.364;6.580;2023-04-04T04:05:29;102729.41;;;0.12;96.09
60307;BME280;46155;52.364;6.580;2023-04-04T04:07:55;102729.28;;;0.17;95.48
60307;BME280;46155;52.364;6.580;2023-04-04T04:10:21;102717.69;;;0.21;95.45
60307;BME280;46155;52.364;6.580;2023-04-04T04:12:46;102724.41;;;0.26;94.21
60307;BME280;46155;52.364;6.580;2023-04-04T04:15:12;102724.09;;;0.30;93.94
60307;BME280;46155;52.364;6.580;2023-04-04T04:17:38;102725.22;;;0.32;93.89
60307;BME280;46155;52.364;6.580;2023-04-04T04:20:05;102718.22;;;0.31;92.65
60307;BME280;46155;52.364;6.580;2023-04-04T04:22:31;102725.66;;;0.36;93.38
60307;BME280;46155;52.364;6.580;2023-04-04T04:24:56;102714.47;;;0.29;94.29
60307;BME280;46155;52.364;6.580;2023-04-04T04:27:22;102719.44;;;0.28;93.15
60307;BME280;46155;52.364;6.580;2023-04-04T04:29:47;102722.44;;;0.31;92.98
60307;BME280;46155;52.364;6.580;2023-04-04T04:32:16;102717.66;;;0.34;92.56
60307;BME280;46155;52.364;6.580;2023-04-04T04:34:42;102712.50;;;0.34;91.73
60307;BME280;46155;52.364;6.580;2023-04-04T04:37:07;102716.75;;;0.33;91.42
60307;BME280;46155;52.364;6.580;2023-04-04T04:39:33;102716.03;;;0.34;91.72
60307;BME280;46155;52.364;6.580;2023-04-04T04:41:58;102712.44;;;0.60;91.97
60307;BME280;46155;52.364;6.580;2023-04-04T04:44:23;102704.88;;;0.61;90.75
60307;BME280;46155;52.364;6.580;2023-04-04T04:46:49;102709.66;;;0.58;90.12
60307;BME280;46155;52.364;6.580;2023-04-04T04:49:14;102714.81;;;0.58;91.25
60307;BME280;46155;52.364;6.580;2023-04-04T04:51:39;102715.16;;;0.54;90.33
60307;BME280;46155;52.364;6.580;2023-04-04T04:54:06;102719.50;;;0.48;89.93
60307;BME280;46155;52.364;6.580;2023-04-04T04:56:32;102724.97;;;0.44;90.21
60307;BME280;46155;52.364;6.580;2023-04-04T04:58:57;102725.53;;;0.41;90.51
60307;BME280;46155;52.364;6.580;2023-04-04T05:01:22;102701.88;;;0.25;90.67
60307;BME280;46155;52.364;6.580;2023-04-04T05:03:48;102715.19;;;0.28;91.54
60307;BME280;46155;52.364;6.580;2023-04-04T05:06:13;102732.97;;;0.32;92.48
60307;BME280;46155;52.364;6.580;2023-04-04T05:08:38;102731.44;;;0.27;92.77
60307;BME280;46155;52.364;6.580;2023-04-04T05:11:04;102732.25;;;0.33;92.38
60307;BME280;46155;52.364;6.580;2023-04-04T05:13:29;102734.84;;;0.33;92.68
60307;BME280;46155;52.364;6.580;2023-04-04T05:15:54;102731.34;;;0.33;92.62
60307;BME280;46155;52.364;6.580;2023-04-04T05:18:20;102722.94;;;0.28;93.57
60307;BME280;46155;52.364;6.580;2023-04-04T05:20:53;102731.84;;;0.30;93.44
60307;BME280;46155;52.364;6.580;2023-04-04T05:23:18;102741.78;;;0.27;94.01
60307;BME280;46155;52.364;6.580;2023-04-04T05:25:44;102732.06;;;0.19;93.47
60307;BME280;46155;52.364;6.580;2023-04-04T05:28:09;102707.91;;;0.06;94.14
60307;BME280;46155;52.364;6.580;2023-04-04T05:30:34;102748.59;;;0.27;94.05
60307;BME280;46155;52.364;6.580;2023-04-04T05:32:59;102746.09;;;0.21;95.06
60307;BME280;46155;52.364;6.580;2023-04-04T05:35:25;102752.44;;;0.10;94.78
60307;BME280;46155;52.364;6.580;2023-04-04T05:37:50;102745.75;;;-0.08;94.72
60307;BME280;46155;52.364;6.580;2023-04-04T05:40:16;102740.47;;;-0.28;95.83
60307;BME280;46155;52.364;6.580;2023-04-04T05:42:41;102743.97;;;-0.40;96.77
60307;BME280;46155;52.364;6.580;2023-04-04T05:45:07;102757.19;;;-0.44;98.63
60307;BME280;46155;52.364;6.580;2023-04-04T05:47:33;102753.38;;;-0.41;98.19
60307;BME280;46155;52.364;6.580;2023-04-04T05:49:58;102753.84;;;0.21;100.00
60307;BME280;46155;52.364;6.580;2023-04-04T05:52:23;102756.94;;;0.44;96.70
60307;BME280;46155;52.364;6.580;2023-04-04T05:54:49;102747.66;;;0.26;96.25
60307;BME280;46155;52.364;6.580;2023-04-04T05:57:15;102750.97;;;0.25;96.63
60307;BME280;46155;52.364;6.580;2023-04-04T05:59:40;102746.78;;;0.13;97.07
60307;BME280;46155;52.364;6.580;2023-04-04T06:02:06;102744.31;;;-0.06;97.95
60307;BME280;46155;52.364;6.580;2023-04-04T06:04:32;102752.56;;;-0.21;99.40
60307;BME280;46155;52.364;6.580;2023-04-04T06:06:57;102753.59;;;-0.26;100.00
60307;BME280;46155;52.364;6.580;2023-04-04T06:09:23;102753.19;;;-0.29;100.00
60307;BME280;46155;52.364;6.580;2023-04-04T06:11:48;102747.63;;;-0.32;100.00
60307;BME280;46155;52.364;6.580;2023-04-04T06:14:14;102726.72;;;-0.47;100.00
60307;BME280;46155;52.364;6.580;2023-04-04T06:16:39;102760.94;;;-0.29;100.00
60307;BME280;46155;52.364;6.580;2023-04-04T06:19:05;102765.38;;;-0.28;100.00
60307;BME280;46155;52.364;6.580;2023-04-04T06:21:30;102761.75;;;-0.23;100.00
60307;BME280;46155;52.364;6.580;2023-04-04T06:23:55;102756.28;;;-0.19;100.00
60307;BME280;46155;52.364;6.580;2023-04-04T06:26:21;102724.06;;;-0.28;100.00
60307;BME280;46155;52.364;6.580;2023-04-04T06:28:50;102754.00;;;0.03;100.00
60307;BME280;46155;52.364;6.580;2023-04-04T06:31:16;102763.38;;;0.15;100.00
60307;BME280;46155;52.364;6.580;2023-04-04T06:33:41;102744.69;;;0.23;100.00
60307;BME280;46155;52.364;6.580;2023-04-04T06:36:07;102761.25;;;0.51;100.00
60307;BME280;46155;52.364;6.580;2023-04-04T06:38:32;102770.03;;;0.59;100.00
60307;BME280;46155;52.364;6.580;2023-04-04T06:40:58;102769.72;;;0.63;100.00
60307;BME280;46155;52.364;6.580;2023-04-04T06:43:23;102776.69;;;0.77;98.04
60307;BME280;46155;52.364;6.580;2023-04-04T06:45:49;102754.63;;;0.86;97.55
60307;BME280;46155;52.364;6.580;2023-04-04T06:48:14;102762.19;;;1.05;96.21
60307;BME280;46155;52.364;6.580;2023-04-04T06:50:40;102767.63;;;1.13;94.84
60307;BME280;46155;52.364;6.580;2023-04-04T06:53:05;102768.69;;;1.28;93.91
60307;BME280;46155;52.364;6.580;2023-04-04T06:55:32;102770.47;;;1.42;92.64
60307;BME280;46155;52.364;6.580;2023-04-04T06:57:58;102767.31;;;1.65;92.60
60307;BME280;46155;52.364;6.580;2023-04-04T07:00:23;102765.31;;;1.69;90.04
60307;BME280;46155;52.364;6.580;2023-04-04T07:02:48;102776.66;;;2.04;88.58
60307;BME280;46155;52.364;6.580;2023-04-04T07:05:14;102764.69;;;2.19;83.97
60307;BME280;46155;52.364;6.580;2023-04-04T07:07:42;102766.19;;;2.24;82.16
60307;BME280;46155;52.364;6.580;2023-04-04T07:10:08;102760.78;;;2.16;81.30
60307;BME280;46155;52.364;6.580;2023-04-04T07:12:33;102774.47;;;2.15;80.27
60307;BME280;46155;52.364;6.580;2023-04-04T07:14:58;102764.66;;;2.12;79.46
60307;BME280;46155;52.364;6.580;2023-04-04T07:17:24;102768.97;;;2.26;78.32
60307;BME280;46155;52.364;6.580;2023-04-04T07:19:49;102763.53;;;2.59;80.23
60307;BME280;46155;52.364;6.580;2023-04-04T07:22:15;102763.59;;;2.81;77.65
60307;BME280;46155;52.364;6.580;2023-04-04T07:24:40;102768.13;;;3.18;78.01
60307;BME280;46155;52.364;6.580;2023-04-04T07:27:06;102770.72;;;3.39;77.04
60307;BME280;46155;52.364;6.580;2023-04-04T07:29:31;102755.88;;;3.02;74.68
60307;BME280;46155;52.364;6.580;2023-04-04T07:31:57;102756.06;;;3.18;77.24
60307;BME280;46155;52.364;6.580;2023-04-04T07:34:22;102759.22;;;3.66;77.95
60307;BME280;46155;52.364;6.580;2023-04-04T07:36:49;102764.00;;;3.85;77.62
60307;BME280;46155;52.364;6.580;2023-04-04T07:39:15;102757.41;;;4.24;76.14
60307;BME280;46155;52.364;6.580;2023-04-04T07:41:41;102759.25;;;4.18;72.04
60307;BME280;46155;52.364;6.580;2023-04-04T07:44:06;102769.88;;;4.05;70.98
60307;BME280;46155;52.364;6.580;2023-04-04T07:46:31;102735.72;;;4.02;74.44
60307;BME280;46155;52.364;6.580;2023-04-04T07:48:57;102762.09;;;4.50;75.86
60307;BME280;46155;52.364;6.580;2023-04-04T07:51:23;102756.81;;;4.34;71.27
60307;BME280;46155;52.364;6.580;2023-04-04T07:53:54;102761.34;;;4.06;69.81
60307;BME280;46155;52.364;6.580;2023-04-04T07:56:19;102761.03;;;3.89;70.08
60307;BME280;46155;52.364;6.580;2023-04-04T07:58:46;102757.09;;;3.92;69.41
60307;BME280;46155;52.364;6.580;2023-04-04T08:01:11;102757.25;;;4.01;69.13
60307;BME280;46155;52.364;6.580;2023-04-04T08:03:37;102750.03;;;4.06;71.34
60307;BME280;46155;52.364;6.580;2023-04-04T08:06:02;102753.13;;;4.62;75.00
60307;BME280;46155;52.364;6.580;2023-04-04T08:08:27;102753.97;;;4.77;68.48
60307;BME280;46155;52.364;6.580;2023-04-04T08:10:53;102757.88;;;5.04;69.34
60307;BME280;46155;52.364;6.580;2023-04-04T08:13:19;102748.25;;;5.65;70.38
60307;BME280;46155;52.364;6.580;2023-04-04T08:15:44;102749.47;;;6.15;66.59
60307;BME280;46155;52.364;6.580;2023-04-04T08:18:10;102754.34;;;5.73;61.20
60307;BME280;46155;52.364;6.580;2023-04-04T08:20:35;102750.97;;;5.12;63.18
60307;BME280;46155;52.364;6.580;2023-04-04T08:23:00;102759.13;;;5.38;66.21
60307;BME280;46155;52.364;6.580;2023-04-04T08:25:26;102763.75;;;5.41;61.58
60307;BME280;46155;52.364;6.580;2023-04-04T08:27:51;102760.41;;;5.42;61.45
60307;BME280;46155;52.364;6.580;2023-04-04T08:30:17;102762.47;;;5.14;62.29
60307;BME280;46155;52.364;6.580;2023-04-04T08:32:42;102754.38;;;5.04;62.83
60307;BME280;46155;52.364;6.580;2023-04-04T08:35:09;102747.44;;;5.34;67.73
60307;BME280;46155;52.364;6.580;2023-04-04T08:37:35;102758.72;;;5.81;62.64
60307;BME280;46155;52.364;6.580;2023-04-04T08:40:02;102743.69;;;5.56;61.17
60307;BME280;46155;52.364;6.580;2023-04-04T08:42:29;102744.28;;;5.30;64.63
60307;BME280;46155;52.364;6.580;2023-04-04T08:44:58;102743.81;;;5.41;64.64
60307;BME280;46155;52.364;6.580;2023-04-04T08:47:26;102738.16;;;5.29;62.66
60307;BME280;46155;52.364;6.580;2023-04-04T08:49:53;102740.59;;;5.28;63.83
60307;BME280;46155;52.364;6.580;2023-04-04T08:52:19;102743.31;;;5.37;63.42
60307;BME280;46155;52.364;6.580;2023-04-04T08:54:47;102741.66;;;5.76;65.17
60307;BME280;46155;52.364;6.580;2023-04-04T08:57:15;102747.50;;;6.22;60.34
60307;BME280;46155;52.364;6.580;2023-04-04T08:59:40;102744.78;;;5.97;58.51
60307;BME280;46155;52.364;6.580;2023-04-04T09:04:36;102751.88;;;5.98;57.57
60307;BME280;46155;52.364;6.580;2023-04-04T09:07:04;102747.69;;;6.07;58.37
60307;BME280;46155;52.364;6.580;2023-04-04T09:09:32;102738.09;;;5.99;57.83
60307;BME280;46155;52.364;6.580;2023-04-04T09:12:01;102751.47;;;5.63;56.44
60307;BME280;46155;52.364;6.580;2023-04-04T09:14:28;102748.56;;;5.76;57.98
60307;BME280;46155;52.364;6.580;2023-04-04T09:16:54;102744.91;;;5.82;57.67
60307;BME280;46155;52.364;6.580;2023-04-04T09:19:20;102746.66;;;5.98;57.12
60307;BME280;46155;52.364;6.580;2023-04-04T09:21:46;102740.09;;;6.17;55.74
60307;BME280;46155;52.364;6.580;2023-04-04T09:24:12;102727.66;;;6.31;56.51
60307;BME280;46155;52.364;6.580;2023-04-04T09:26:51;102740.44;;;6.20;55.36
60307;BME280;46155;52.364;6.580;2023-04-04T09:29:18;102733.44;;;6.12;56.14
60307;BME280;46155;52.364;6.580;2023-04-04T09:31:44;102733.53;;;6.37;55.53
60307;BME280;46155;52.364;6.580;2023-04-04T09:34:12;102725.09;;;6.24;54.13
60307;BME280;46155;52.364;6.580;2023-04-04T09:36:39;102719.84;;;6.31;55.38
60307;BME280;46155;52.364;6.580;2023-04-04T09:39:05;102741.13;;;6.27;54.70
60307;BME280;46155;52.364;6.580;2023-04-04T09:41:31;102729.81;;;6.35;54.85
60307;BME280;46155;52.364;6.580;2023-04-04T09:43:56;102722.25;;;6.45;55.88
60307;BME280;46155;52.364;6.580;2023-04-04T09:46:22;102720.81;;;6.40;55.75
60307;BME280;46155;52.364;6.580;2023-04-04T09:48:49;102725.59;;;6.44;56.37
60307;BME280;46155;52.364;6.580;2023-04-04T09:51:15;102726.50;;;6.45;54.37
60307;BME280;46155;52.364;6.580;2023-04-04T09:53:40;102720.81;;;6.65;56.62
60307;BME280;46155;52.364;6.580;2023-04-04T09:56:06;102720.84;;;6.89;55.89
60307;BME280;46155;52.364;6.580;2023-04-04T09:58:32;102722.47;;;6.80;52.12
60307;BME280;46155;52.364;6.580;2023-04-04T10:01:03;102715.28;;;6.62;52.96
60307;BME280;46155;52.364;6.580;2023-04-04T10:03:29;102714.63;;;6.80;54.58
60307;BME280;46155;52.364;6.580;2023-04-04T10:06:05;102707.13;;;6.59;54.42
60307;BME280;46155;52.364;6.580;2023-04-04T10:08:32;102715.44;;;6.79;55.57
60307;BME280;46155;52.364;6.580;2023-04-04T10:10:59;102724.28;;;6.72;54.10
60307;BME280;46155;52.364;6.580;2023-04-04T10:13:30;102719.84;;;6.96;55.86
60307;BME280;46155;52.364;6.580;2023-04-04T10:15:58;102723.97;;;7.28;54.58
60307;BME280;46155;52.364;6.580;2023-04-04T10:18:26;102720.50;;;7.11;49.47
60307;BME280;46155;52.364;6.580;2023-04-04T10:20:56;102721.84;;;7.32;54.11
60307;BME280;46155;52.364;6.580;2023-04-04T10:23:23;102718.81;;;7.45;54.00
60307;BME280;46155;52.364;6.580;2023-04-04T10:25:51;102717.03;;;7.19;53.66
60307;BME280;46155;52.364;6.580;2023-04-04T10:28:17;102707.66;;;7.64;54.25
60307;BME280;46155;52.364;6.580;2023-04-04T10:30:48;102720.97;;;7.40;52.19
60307;BME280;46155;52.364;6.580;2023-04-04T10:33:21;102709.94;;;7.52;55.59
60307;BME280;46155;52.364;6.580;2023-04-04T10:35:52;102693.50;;;7.62;52.59
60307;BME280;46155;52.364;6.580;2023-04-04T10:38:24;102698.91;;;7.72;53.03
60307;BME280;46155;52.364;6.580;2023-04-04T10:40:52;102694.94;;;7.84;53.24
60307;BME280;46155;52.364;6.580;2023-04-04T10:43:24;102691.81;;;7.71;53.16
60307;BME280;46155;52.364;6.580;2023-04-04T10:45:51;102688.81;;;8.10;52.68
60307;BME280;46155;52.364;6.580;2023-04-04T10:48:17;102692.47;;;7.77;50.53
60307;BME280;46155;52.364;6.580;2023-04-04T10:50:45;102687.22;;;7.68;51.96
60307;BME280;46155;52.364;6.580;2023-04-04T10:53:11;102684.91;;;7.63;49.71
60307;BME280;46155;52.364;6.580;2023-04-04T10:55:37;102678.28;;;7.57;50.58
60307;BME280;46155;52.364;6.580;2023-04-04T10:58:04;102669.03;;;7.52;51.62
60307;BME280;46155;52.364;6.580;2023-04-04T11:00:31;102681.44;;;7.29;51.38
60307;BME280;46155;52.364;6.580;2023-04-04T11:03:00;102672.81;;;7.38;52.02
60307;BME280;46155;52.364;6.580;2023-04-04T11:05:38;102665.38;;;7.76;55.22
60307;BME280;46155;52.364;6.580;2023-04-04T11:08:17;102670.81;;;7.87;52.51
60307;BME280;46155;52.364;6.580;2023-04-04T11:10:52;102674.34;;;7.87;52.48
60307;BME280;46155;52.364;6.580;2023-04-04T11:18:20;102667.56;;;7.89;51.39
60307;BME280;46155;52.364;6.580;2023-04-04T11:20:46;102670.91;;;7.71;49.34
60307;BME280;46155;52.364;6.580;2023-04-04T11:23:20;102665.78;;;7.46;49.86
60307;BME280;46155;52.364;6.580;2023-04-04T11:25:56;102671.19;;;7.14;49.08
60307;BME280;46155;52.364;6.580;2023-04-04T11:34:14;102661.91;;;7.34;51.57
60307;BME280;46155;52.364;6.580;2023-04-04T11:36:54;102654.25;;;7.44;51.14
60307;BME280;46155;52.364;6.580;2023-04-04T11:39:24;102649.41;;;7.82;51.41
60307;BME280;46155;52.364;6.580;2023-04-04T11:42:13;102641.13;;;8.13;51.36
60307;BME280;46155;52.364;6.580;2023-04-04T11:47:24;102645.91;;;8.88;46.06
60307;BME280;46155;52.364;6.580;2023-04-04T11:49:49;102634.88;;;8.82;48.94
60307;BME280;46155;52.364;6.580;2023-04-04T11:52:17;102638.03;;;8.17;47.68
60307;BME280;46155;52.364;6.580;2023-04-04T11:54:44;102632.97;;;8.18;46.60
60307;BME280;46155;52.364;6.580;2023-04-04T11:57:11;102630.47;;;7.76;46.19
60307;BME280;46155;52.364;6.580;2023-04-04T11:59:44;102624.13;;;7.56;46.05
60307;BME280;46155;52.364;6.580;2023-04-04T12:02:11;102621.44;;;7.81;48.47
60307;BME280;46155;52.364;6.580;2023-04-04T12:04:38;102625.41;;;7.86;47.08
60307;BME280;46155;52.364;6.580;2023-04-04T12:07:05;102624.13;;;7.56;43.91
60307;BME280;46155;52.364;6.580;2023-04-04T12:09:32;102616.94;;;7.63;44.01
60307;BME280;46155;52.364;6.580;2023-04-04T12:11:58;102606.03;;;8.02;45.67
60307;BME280;46155;52.364;6.580;2023-04-04T12:14:24;102624.19;;;8.09;45.15
60307;BME280;46155;52.364;6.580;2023-04-04T12:16:54;102609.06;;;8.33;47.24
60307;BME280;46155;52.364;6.580;2023-04-04T12:19:24;102611.41;;;8.30;44.15
60307;BME280;46155;52.364;6.580;2023-04-04T12:21:52;102601.09;;;7.96;43.78
60307;BME280;46155;52.364;6.580;2023-04-04T12:24:18;102599.88;;;8.10;45.12
60307;BME280;46155;52.364;6.580;2023-04-04T12:26:45;102601.41;;;7.73;44.59
60307;BME280;46155;52.364;6.580;2023-04-04T12:29:12;102600.16;;;7.69;45.88
60307;BME280;46155;52.364;6.580;2023-04-04T12:31:40;102591.88;;;7.73;46.39
60307;BME280;46155;52.364;6.580;2023-04-04T12:34:18;102594.31;;;8.16;46.79
60307;BME280;46155;52.364;6.580;2023-04-04T12:36:46;102591.34;;;8.48;46.77
60307;BME280;46155;52.364;6.580;2023-04-04T12:39:14;102587.50;;;8.44;45.34
60307;BME280;46155;52.364;6.580;2023-04-04T12:41:54;102586.47;;;8.24;42.74
60307;BME280;46155;52.364;6.580;2023-04-04T12:46:51;102581.88;;;8.04;42.78
60307;BME280;46155;52.364;6.580;2023-04-04T12:49:20;102581.09;;;7.97;42.22
60307;BME280;46155;52.364;6.580;2023-04-04T12:51:46;102570.34;;;8.11;43.67
60307;BME280;46155;52.364;6.580;2023-04-04T12:54:24;102572.44;;;8.33;43.60
60307;BME280;46155;52.364;6.580;2023-04-04T12:56:56;102565.47;;;8.42;43.19
60307;BME280;46155;52.364;6.580;2023-04-04T12:59:23;102556.28;;;8.46;43.87
60307;BME280;46155;52.364;6.580;2023-04-04T13:01:48;102561.00;;;8.58;43.70
60307;BME280;46155;52.364;6.580;2023-04-04T13:04:14;102551.72;;;8.71;44.27
60307;BME280;46155;52.364;6.580;2023-04-04T13:06:44;102553.91;;;8.66;41.47
60307;BME280;46155;52.364;6.580;2023-04-04T13:09:19;102543.75;;;8.60;42.34
60307;BME280;46155;52.364;6.580;2023-04-04T13:11:55;102548.44;;;8.19;43.58
60307;BME280;46155;52.364;6.580;2023-04-04T13:14:20;102542.88;;;8.25;43.47
60307;BME280;46155;52.364;6.580;2023-04-04T13:17:03;102539.28;;;8.42;43.99
60307;BME280;46155;52.364;6.580;2023-04-04T13:19:29;102530.50;;;8.68;44.86
60307;BME280;46155;52.364;6.580;2023-04-04T13:21:54;102534.34;;;8.63;42.73
60307;BME280;46155;52.364;6.580;2023-04-04T13:24:20;102540.25;;;8.42;42.83
60307;BME280;46155;52.364;6.580;2023-04-04T13:26:46;102543.53;;;8.22;42.24
60307;BME280;46155;52.364;6.580;2023-04-04T13:29:11;102526.91;;;8.13;41.90
60307;BME280;46155;52.364;6.580;2023-04-04T13:31:36;102524.13;;;8.20;42.84
60307;BME280;46155;52.364;6.580;2023-04-04T13:34:02;102517.97;;;8.28;43.94
60307;BME280;46155;52.364;6.580;2023-04-04T13:36:27;102515.63;;;8.49;45.31
60307;BME280;46155;52.364;6.580;2023-04-04T13:38:52;102506.47;;;8.91;44.07
60307;BME280;46155;52.364;6.580;2023-04-04T13:41:18;102492.44;;;9.18;46.14
60307;BME280;46155;52.364;6.580;2023-04-04T13:43:43;102503.53;;;8.96;40.19
60307;BME280;46155;52.364;6.580;2023-04-04T13:46:08;102512.50;;;8.62;40.37
60307;BME280;46155;52.364;6.580;2023-04-04T13:48:33;102496.38;;;8.40;40.37
60307;BME280;46155;52.364;6.580;2023-04-04T13:50:59;102491.09;;;8.57;42.47
60307;BME280;46155;52.364;6.580;2023-04-04T13:53:24;102486.97;;;8.51;40.88
60307;BME280;46155;52.364;6.580;2023-04-04T13:55:49;102487.31;;;8.73;42.66
60307;BME280;46155;52.364;6.580;2023-04-04T13:58:15;102484.13;;;8.94;41.64
60307;BME280;46155;52.364;6.580;2023-04-04T14:00:47;102480.91;;;8.88;39.30
60307;BME280;46155;52.364;6.580;2023-04-04T14:03:13;102480.16;;;8.89;39.19
60307;BME280;46155;52.364;6.580;2023-04-04T14:05:38;102470.91;;;8.84;40.63
60307;BME280;46155;52.364;6.580;2023-04-04T14:08:03;102469.53;;;9.07;42.25
60307;BME280;46155;52.364;6.580;2023-04-04T14:10:29;102465.88;;;9.05;40.45
60307;BME280;46155;52.364;6.580;2023-04-04T14:12:54;102470.81;;;9.02;40.45
60307;BME280;46155;52.364;6.580;2023-04-04T14:15:20;102462.63;;;8.79;41.26
60307;BME280;46155;52.364;6.580;2023-04-04T14:17:46;102461.94;;;8.72;42.90
60307;BME280;46155;52.364;6.580;2023-04-04T14:20:11;102460.56;;;8.67;42.93
60307;BME280;46155;52.364;6.580;2023-04-04T14:22:37;102457.06;;;8.57;42.48
60307;BME280;46155;52.364;6.580;2023-04-04T14:25:02;102461.06;;;8.82;44.38
60307;BME280;46155;52.364;6.580;2023-04-04T14:27:28;102458.63;;;8.83;43.32
60307;BME280;46155;52.364;6.580;2023-04-04T14:29:54;102448.66;;;8.98;42.55
60307;BME280;46155;52.364;6.580;2023-04-04T14:32:19;102450.72;;;9.11;43.00
60307;BME280;46155;52.364;6.580;2023-04-04T14:34:44;102444.16;;;9.06;42.97
60307;BME280;46155;52.364;6.580;2023-04-04T14:37:10;102447.53;;;9.24;42.79
60307;BME280;46155;52.364;6.580;2023-04-04T14:39:35;102447.59;;;9.34;42.83
60307;BME280;46155;52.364;6.580;2023-04-04T14:42:00;102440.94;;;9.38;43.35
60307;BME280;46155;52.364;6.580;2023-04-04T14:44:26;102453.91;;;9.36;41.10
60307;BME280;46155;52.364;6.580;2023-04-04T14:46:51;102424.88;;;9.05;42.66
60307;BME280;46155;52.364;6.580;2023-04-04T14:49:17;102447.28;;;8.74;40.54
60307;BME280;46155;52.364;6.580;2023-04-04T14:51:42;102430.66;;;8.65;42.09
60307;BME280;46155;52.364;6.580;2023-04-04T14:54:08;102428.25;;;8.85;43.13
60307;BME280;46155;52.364;6.580;2023-04-04T14:56:33;102437.81;;;9.04;41.60
60307;BME280;46155;52.364;6.580;2023-04-04T14:58:58;102431.03;;;9.06;41.17
60307;BME280;46155;52.364;6.580;2023-04-04T15:01:26;102416.59;;;9.01;41.94
60307;BME280;46155;52.364;6.580;2023-04-04T15:03:51;102415.88;;;9.12;41.45
60307;BME280;46155;52.364;6.580;2023-04-04T15:06:18;102422.09;;;8.85;41.69
60307;BME280;46155;52.364;6.580;2023-04-04T15:08:43;102419.13;;;8.90;41.31
60307;BME280;46155;52.364;6.580;2023-04-04T15:11:08;102412.75;;;8.97;40.62
60307;BME280;46155;52.364;6.580;2023-04-04T15:13:34;102408.75;;;8.73;39.11
60307;BME280;46155;52.364;6.580;2023-04-04T15:16:00;102407.78;;;8.81;40.54
60307;BME280;46155;52.364;6.580;2023-04-04T15:18:26;102411.13;;;8.89;41.12
60307;BME280;46155;52.364;6.580;2023-04-04T15:20:51;102407.72;;;8.90;40.99
60307;BME280;46155;52.364;6.580;2023-04-04T15:23:17;102409.63;;;8.82;39.96
60307;BME280;46155;52.364;6.580;2023-04-04T15:25:42;102412.84;;;9.07;40.04
60307;BME280;46155;52.364;6.580;2023-04-04T15:28:07;102420.31;;;8.94;39.49
60307;BME280;46155;52.364;6.580;2023-04-04T15:30:33;102411.91;;;9.07;39.60
60307;BME280;46155;52.364;6.580;2023-04-04T15:32:58;102409.66;;;9.20;39.56
60307;BME280;46155;52.364;6.580;2023-04-04T15:35:23;102409.56;;;9.10;40.52
60307;BME280;46155;52.364;6.580;2023-04-04T15:37:49;102405.38;;;8.74;36.72
60307;BME280;46155;52.364;6.580;2023-04-04T15:40:16;102403.53;;;8.73;38.02
60307;BME280;46155;52.364;6.580;2023-04-04T15:42:41;102404.34;;;8.91;39.77
60307;BME280;46155;52.364;6.580;2023-04-04T15:45:07;102400.31;;;8.94;39.06
60307;BME280;46155;52.364;6.580;2023-04-04T15:47:33;102402.00;;;8.75;38.74
60307;BME280;46155;52.364;6.580;2023-04-04T15:49:59;102407.63;;;8.60;36.88
60307;BME280;46155;52.364;6.580;2023-04-04T15:52:24;102396.75;;;8.75;39.61
60307;BME280;46155;52.364;6.580;2023-04-04T15:54:51;102403.41;;;8.90;39.13
60307;BME280;46155;52.364;6.580;2023-04-04T15:57:16;102404.88;;;8.78;37.38
60307;BME280;46155;52.364;6.580;2023-04-04T15:59:41;102399.44;;;8.85;36.85
60307;BME280;46155;52.364;6.580;2023-04-04T16:02:07;102402.34;;;8.88;37.14
60307;BME280;46155;52.364;6.580;2023-04-04T16:04:32;102390.69;;;8.85;36.82
60307;BME280;46155;52.364;6.580;2023-04-04T16:06:57;102385.97;;;9.10;38.30
60307;BME280;46155;52.364;6.580;2023-04-04T16:09:23;102386.75;;;9.28;38.34
60307;BME280;46155;52.364;6.580;2023-04-04T16:11:49;102386.63;;;9.26;37.61
60307;BME280;46155;52.364;6.580;2023-04-04T16:14:14;102381.59;;;9.19;36.75
60307;BME280;46155;52.364;6.580;2023-04-04T16:16:39;102385.97;;;9.10;37.38